sensor_id;sensor_type;location;lat;lon;timestamp;pressure;altitude;pressure_sealevel;temperature;humidity
29379;BME280;16362;47.202;15.258;2023-02-19T00:01:10;96327.22;;;5.68;99.02
29379;BME280;16362;47.202;15.258;2023-02-19T00:03:38;96326.13;;;5.61;99.40
29379;BME280;16362;47.202;15.258;2023-02-19T00:06:07;96329.75;;;5.50;100.00
29379;BME280;16362;47.202;15.258;2023-02-19T00:08:36;96327.81;;;5.42;100.00
29379;BME280;16362;47.202;15.258;2023-02-19T00:11:06;96325.75;;;5.36;100.00
29379;BME280;16362;47.202;15.258;2023-02-19T00:13:37;96326.59;;;5.27;100.00
29379;BME280;16362;47.202;15.258;2023-02-19T00:16:05;96324.34;;;5.22;100.00
29379;BME280;16362;47.202;15.258;2023-02-19T00:18:34;96326.97;;;5.22;100.00
29379;BME280;16362;47.202;15.258;2023-02-19T00:21:02;96327.41;;;5.17;100.00
29379;BME280;16362;47.202;15.258;2023-02-19T00:23:29;96328.38;;;5.06;100.00
29379;BME280;16362;47.202;15.258;2023-02-19T00:25:56;96336.19;;;5.08;100.00
29379;BME280;16362;47.202;15.258;2023-02-19T00:28:34;96332.00;;;4.96;100.00
29379;BME280;16362;47.202;15.258;2023-02-19T00:31:05;96326.84;;;4.84;100.00
29379;BME280;16362;47.202;15.258;2023-02-19T00:33:32;96334.34;;;4.79;100.00
29379;BME280;16362;47.202;15.258;2023-02-19T00:36:01;96345.31;;;4.75;100.00
29379;BME280;16362;47.202;15.258;2023-02-19T00:38:28;96344.50;;;4.74;100.00
29379;BME280;16362;47.202;15.258;2023-02-19T00:40:54;96340.16;;;4.73;100.00
29379;BME280;16362;47.202;15.258;2023-02-19T00:43:21;96347.66;;;4.68;100.00
29379;BME280;16362;47.202;15.258;2023-02-19T00:45:48;96352.72;;;4.71;100.00
29379;BME280;16362;47.202;15.258;2023-02-19T00:51:55;96349.91;;;4.72;100.00
29379;BME280;16362;47.202;15.258;2023-02-19T00:54:22;96348.81;;;4.85;100.00
29379;BME280;16362;47.202;15.258;2023-02-19T00:56:49;96349.78;;;4.74;100.00
29379;BME280;16362;47.202;15.258;2023-02-19T00:59:16;96342.66;;;4.65;100.00
29379;BME280;16362;47.202;15.258;2023-02-19T01:01:43;96341.13;;;4.62;100.00
29379;BME280;16362;47.202;15.258;2023-02-19T01:04:10;96344.44;;;4.54;100.00
29379;BME280;16362;47.202;15.258;2023-02-19T01:06:36;96338.91;;;4.58;100.00
29379;BME280;16362;47.202;15.258;2023-02-19T01:09:04;96331.50;;;4.51;100.00
29379;BME280;16362;47.202;15.258;2023-02-19T01:11:31;96320.47;;;4.46;100.00
29379;BME280;16362;47.202;15.258;2023-02-19T01:13:59;96319.09;;;4.42;100.00
29379;BME280;16362;47.202;15.258;2023-02-19T01:16:26;96317.75;;;4.58;100.00
29379;BME280;16362;47.202;15.258;2023-02-19T01:18:53;96317.75;;;4.58;100.00
29379;BME280;16362;47.202;15.258;2023-02-19T01:21:24;96312.69;;;4.45;100.00
29379;BME280;16362;47.202;15.258;2023-02-19T01:23:51;96305.31;;;4.38;100.00
29379;BME280;16362;47.202;15.258;2023-02-19T01:26:20;96305.16;;;4.30;100.00
29379;BME280;16362;47.202;15.258;2023-02-19T01:28:48;96303.19;;;4.22;100.00
29379;BME280;16362;47.202;15.258;2023-02-19T01:31:17;96300.53;;;4.22;100.00
29379;BME280;16362;47.202;15.258;2023-02-19T01:33:46;96296.63;;;4.17;100.00
29379;BME280;16362;47.202;15.258;2023-02-19T01:36:13;96304.00;;;4.13;100.00
29379;BME280;16362;47.202;15.258;2023-02-19T01:38:40;96294.38;;;4.12;100.00
29379;BME280;16362;47.202;15.258;2023-02-19T01:41:10;96295.63;;;4.08;100.00
29379;BME280;16362;47.202;15.258;2023-02-19T01:46:44;96296.06;;;4.13;100.00
29379;BME280;16362;47.202;15.258;2023-02-19T01:49:20;96286.03;;;4.07;100.00
29379;BME280;16362;47.202;15.258;2023-02-19T01:51:56;96283.28;;;4.09;100.00
29379;BME280;16362;47.202;15.258;2023-02-19T01:54:27;96275.91;;;4.12;100.00
29379;BME280;16362;47.202;15.258;2023-02-19T01:56:57;96283.38;;;4.07;100.00
29379;BME280;16362;47.202;15.258;2023-02-19T01:59:25;96281.34;;;4.20;100.00
29379;BME280;16362;47.202;15.258;2023-02-19T02:01:51;96280.66;;;4.18;100.00
29379;BME280;16362;47.202;15.258;2023-02-19T02:04:18;96280.91;;;4.15;100.00
29379;BME280;16362;47.202;15.258;2023-02-19T02:06:51;96276.84;;;4.11;100.00
29379;BME280;16362;47.202;15.258;2023-02-19T02:09:20;96271.56;;;4.11;100.00
29379;BME280;16362;47.202;15.258;2023-02-19T02:12:06;96266.88;;;4.15;100.00
29379;BME280;16362;47.202;15.258;2023-02-19T02:14:36;96268.94;;;4.11;100.00
29379;BME280;16362;47.202;15.258;2023-02-19T02:17:29;96268.56;;;4.26;100.00
29379;BME280;16362;47.202;15.258;2023-02-19T02:31:18;96267.34;;;4.39;100.00
29379;BME280;16362;47.202;15.258;2023-02-19T02:36:18;96266.75;;;4.26;100.00
29379;BME280;16362;47.202;15.258;2023-02-19T02:38:48;96254.06;;;4.10;100.00
29379;BME280;16362;47.202;15.258;2023-02-19T02:41:15;96272.41;;;4.02;100.00
29379;BME280;16362;47.202;15.258;2023-02-19T02:43:42;96255.97;;;3.98;100.00
29379;BME280;16362;47.202;15.258;2023-02-19T02:46:12;96264.19;;;3.95;100.00
29379;BME280;16362;47.202;15.258;2023-02-19T02:48:47;96254.72;;;3.93;100.00
29379;BME280;16362;47.202;15.258;2023-02-19T02:51:41;96252.16;;;3.81;100.00
29379;BME280;16362;47.202;15.258;2023-02-19T02:54:10;96251.84;;;3.75;100.00
29379;BME280;16362;47.202;15.258;2023-02-19T02:56:57;96247.94;;;3.69;100.00
29379;BME280;16362;47.202;15.258;2023-02-19T02:59:26;96251.44;;;3.69;100.00
29379;BME280;16362;47.202;15.258;2023-02-19T03:01:57;96234.75;;;4.10;100.00
29379;BME280;16362;47.202;15.258;2023-02-19T03:05:18;96242.13;;;4.16;100.00
29379;BME280;16362;47.202;15.258;2023-02-19T03:08:12;96245.81;;;3.94;100.00
29379;BME280;16362;47.202;15.258;2023-02-19T03:10:50;96239.81;;;3.82;100.00
29379;BME280;16362;47.202;15.258;2023-02-19T03:13:22;96244.66;;;3.86;100.00
29379;BME280;16362;47.202;15.258;2023-02-19T03:16:13;96248.41;;;3.84;100.00
29379;BME280;16362;47.202;15.258;2023-02-19T03:19:00;96245.22;;;3.80;100.00
29379;BME280;16362;47.202;15.258;2023-02-19T03:21:56;96247.00;;;3.80;100.00
29379;BME280;16362;47.202;15.258;2023-02-19T03:24:30;96254.47;;;3.75;100.00
29379;BME280;16362;47.202;15.258;2023-02-19T03:27:18;96257.44;;;3.81;100.00
29379;BME280;16362;47.202;15.258;2023-02-19T03:29:47;96246.47;;;3.76;100.00
29379;BME280;16362;47.202;15.258;2023-02-19T03:32:30;96240.00;;;3.69;100.00
29379;BME280;16362;47.202;15.258;2023-02-19T03:35:03;96244.44;;;3.59;100.00
29379;BME280;16362;47.202;15.258;2023-02-19T03:37:36;96254.88;;;3.39;100.00
29379;BME280;16362;47.202;15.258;2023-02-19T03:40:05;96258.72;;;3.35;100.00
29379;BME280;16362;47.202;15.258;2023-02-19T03:43:03;96252.78;;;3.33;100.00
29379;BME280;16362;47.202;15.258;2023-02-19T03:45:49;96247.94;;;3.17;100.00
29379;BME280;16362;47.202;15.258;2023-02-19T03:48:30;96260.34;;;3.05;100.00
29379;BME280;16362;47.202;15.258;2023-02-19T03:51:04;96250.63;;;3.06;100.00
29379;BME280;16362;47.202;15.258;2023-02-19T03:57:36;96257.06;;;3.13;100.00
29379;BME280;16362;47.202;15.258;2023-02-19T04:00:10;96246.59;;;3.23;100.00
29379;BME280;16362;47.202;15.258;2023-02-19T04:02:55;96239.91;;;3.18;100.00
29379;BME280;16362;47.202;15.258;2023-02-19T04:05:29;96246.25;;;3.16;100.00
29379;BME280;16362;47.202;15.258;2023-02-19T04:08:01;96241.00;;;3.16;100.00
29379;BME280;16362;47.202;15.258;2023-02-19T04:10:29;96230.81;;;3.32;100.00
29379;BME280;16362;47.202;15.258;2023-02-19T04:13:07;96239.63;;;3.22;100.00
29379;BME280;16362;47.202;15.258;2023-02-19T04:15:39;96231.13;;;3.18;100.00
29379;BME280;16362;47.202;15.258;2023-02-19T04:18:11;96233.78;;;3.18;100.00
29379;BME280;16362;47.202;15.258;2023-02-19T04:20:42;96226.84;;;3.17;100.00
29379;BME280;16362;47.202;15.258;2023-02-19T04:23:11;96227.66;;;3.17;100.00
29379;BME280;16362;47.202;15.258;2023-02-19T04:25:41;96230.91;;;3.21;100.00
29379;BME280;16362;47.202;15.258;2023-02-19T04:28:09;96226.91;;;3.27;100.00
29379;BME280;16362;47.202;15.258;2023-02-19T04:30:35;96232.50;;;3.33;100.00
29379;BME280;16362;47.202;15.258;2023-02-19T04:33:02;96238.22;;;3.17;100.00
29379;BME280;16362;47.202;15.258;2023-02-19T04:35:29;96232.81;;;3.19;100.00
29379;BME280;16362;47.202;15.258;2023-02-19T04:37:55;96226.31;;;3.23;100.00
29379;BME280;16362;47.202;15.258;2023-02-19T04:40:22;96222.41;;;3.17;100.00
29379;BME280;16362;47.202;15.258;2023-02-19T04:42:49;96227.94;;;3.14;100.00
29379;BME280;16362;47.202;15.258;2023-02-19T04:45:15;96215.22;;;3.19;100.00
29379;BME280;16362;47.202;15.258;2023-02-19T04:47:42;96222.13;;;3.20;100.00
29379;BME280;16362;47.202;15.258;2023-02-19T04:50:09;96225.03;;;3.17;100.00
29379;BME280;16362;47.202;15.258;2023-02-19T04:52:36;96231.91;;;3.30;100.00
29379;BME280;16362;47.202;15.258;2023-02-19T04:55:02;96210.28;;;3.36;100.00
29379;BME280;16362;47.202;15.258;2023-02-19T04:57:29;96223.16;;;3.29;100.00
29379;BME280;16362;47.202;15.258;2023-02-19T04:59:56;96231.59;;;3.23;100.00
29379;BME280;16362;47.202;15.258;2023-02-19T05:02:23;96228.81;;;3.25;100.00
29379;BME280;16362;47.202;15.258;2023-02-19T05:04:50;96229.81;;;3.24;100.00
29379;BME280;16362;47.202;15.258;2023-02-19T05:07:17;96221.31;;;3.20;100.00
29379;BME280;16362;47.202;15.258;2023-02-19T05:09:44;96222.25;;;3.19;100.00
29379;BME280;16362;47.202;15.258;2023-02-19T05:12:10;96226.13;;;3.15;100.00
29379;BME280;16362;47.202;15.258;2023-02-19T05:14:37;96225.31;;;3.14;100.00
29379;BME280;16362;47.202;15.258;2023-02-19T05:17:04;96220.03;;;3.14;100.00
29379;BME280;16362;47.202;15.258;2023-02-19T05:19:30;96197.25;;;3.13;100.00
29379;BME280;16362;47.202;15.258;2023-02-19T05:21:57;96185.34;;;3.19;100.00
29379;BME280;16362;47.202;15.258;2023-02-19T05:24:24;96191.56;;;3.18;100.00
29379;BME280;16362;47.202;15.258;2023-02-19T05:26:52;96188.38;;;3.14;100.00
29379;BME280;16362;47.202;15.258;2023-02-19T05:30:31;96186.88;;;3.22;100.00
29379;BME280;16362;47.202;15.258;2023-02-19T05:32:58;96183.47;;;3.31;100.00
29379;BME280;16362;47.202;15.258;2023-02-19T05:35:24;96195.84;;;3.30;100.00
29379;BME280;16362;47.202;15.258;2023-02-19T05:37:51;96198.56;;;3.29;100.00
29379;BME280;16362;47.202;15.258;2023-02-19T05:40:18;96198.19;;;3.33;100.00
29379;BME280;16362;47.202;15.258;2023-02-19T05:42:44;96211.69;;;3.40;100.00
29379;BME280;16362;47.202;15.258;2023-02-19T05:45:11;96217.81;;;3.41;100.00
29379;BME280;16362;47.202;15.258;2023-02-19T05:47:38;96213.00;;;3.56;100.00
29379;BME280;16362;47.202;15.258;2023-02-19T05:50:05;96217.59;;;3.53;100.00
29379;BME280;16362;47.202;15.258;2023-02-19T05:52:31;96212.16;;;3.76;100.00
29379;BME280;16362;47.202;15.258;2023-02-19T05:54:58;96202.69;;;3.74;100.00
29379;BME280;16362;47.202;15.258;2023-02-19T05:57:25;96204.31;;;3.65;100.00
29379;BME280;16362;47.202;15.258;2023-02-19T05:59:51;96191.97;;;3.65;100.00
29379;BME280;16362;47.202;15.258;2023-02-19T06:02:18;96190.41;;;3.63;100.00
29379;BME280;16362;47.202;15.258;2023-02-19T06:04:45;96210.13;;;3.59;100.00
29379;BME280;16362;47.202;15.258;2023-02-19T06:07:11;96214.09;;;3.53;100.00
29379;BME280;16362;47.202;15.258;2023-02-19T06:09:38;96225.38;;;3.55;100.00
29379;BME280;16362;47.202;15.258;2023-02-19T06:12:05;96218.25;;;3.77;100.00
29379;BME280;16362;47.202;15.258;2023-02-19T06:14:33;96218.09;;;3.78;100.00
29379;BME280;16362;47.202;15.258;2023-02-19T06:17:00;96218.34;;;3.65;100.00
29379;BME280;16362;47.202;15.258;2023-02-19T06:19:26;96224.28;;;3.58;100.00
29379;BME280;16362;47.202;15.258;2023-02-19T06:21:53;96218.47;;;3.64;100.00
29379;BME280;16362;47.202;15.258;2023-02-19T06:24:20;96219.31;;;3.64;100.00
29379;BME280;16362;47.202;15.258;2023-02-19T06:26:46;96221.94;;;3.64;100.00
29379;BME280;16362;47.202;15.258;2023-02-19T06:29:13;96219.44;;;3.63;100.00
29379;BME280;16362;47.202;15.258;2023-02-19T06:31:39;96209.13;;;3.60;100.00
29379;BME280;16362;47.202;15.258;2023-02-19T06:34:06;96204.41;;;3.53;100.00
29379;BME280;16362;47.202;15.258;2023-02-19T06:36:33;96204.13;;;3.57;100.00
29379;BME280;16362;47.202;15.258;2023-02-19T06:39:00;96195.25;;;3.58;100.00
29379;BME280;16362;47.202;15.258;2023-02-19T06:41:27;96210.94;;;3.59;100.00
29379;BME280;16362;47.202;15.258;2023-02-19T06:43:56;96227.09;;;3.66;100.00
29379;BME280;16362;47.202;15.258;2023-02-19T06:46:22;96222.28;;;4.31;100.00
29379;BME280;16362;47.202;15.258;2023-02-19T06:48:49;96217.84;;;4.32;100.00
29379;BME280;16362;47.202;15.258;2023-02-19T06:51:18;96220.16;;;4.15;100.00
29379;BME280;16362;47.202;15.258;2023-02-19T06:53:49;96217.78;;;4.02;100.00
29379;BME280;16362;47.202;15.258;2023-02-19T06:56:25;96227.59;;;3.91;100.00
29379;BME280;16362;47.202;15.258;2023-02-19T06:58:54;96218.28;;;3.86;100.00
29379;BME280;16362;47.202;15.258;2023-02-19T07:01:22;96233.00;;;3.89;100.00
29379;BME280;16362;47.202;15.258;2023-02-19T07:03:49;96236.09;;;3.94;100.00
29379;BME280;16362;47.202;15.258;2023-02-19T07:06:16;96221.78;;;3.97;100.00
29379;BME280;16362;47.202;15.258;2023-02-19T07:08:43;96227.91;;;3.97;100.00
29379;BME280;16362;47.202;15.258;2023-02-19T07:11:10;96228.63;;;3.99;100.00
29379;BME280;16362;47.202;15.258;2023-02-19T07:13:37;96237.09;;;4.03;100.00
29379;BME280;16362;47.202;15.258;2023-02-19T07:16:06;96238.63;;;4.15;100.00
29379;BME280;16362;47.202;15.258;2023-02-19T07:18:33;96235.03;;;4.16;100.00
29379;BME280;16362;47.202;15.258;2023-02-19T07:21:05;96239.34;;;4.17;100.00
29379;BME280;16362;47.202;15.258;2023-02-19T07:23:33;96233.53;;;4.24;100.00
29379;BME280;16362;47.202;15.258;2023-02-19T07:26:00;96224.81;;;4.43;100.00
29379;BME280;16362;47.202;15.258;2023-02-19T07:28:26;96223.41;;;4.58;100.00
29379;BME280;16362;47.202;15.258;2023-02-19T07:30:59;96226.88;;;4.59;100.00
29379;BME280;16362;47.202;15.258;2023-02-19T07:33:26;96216.47;;;4.57;100.00
29379;BME280;16362;47.202;15.258;2023-02-19T07:35:53;96228.28;;;4.53;100.00
29379;BME280;16362;47.202;15.258;2023-02-19T07:38:21;96231.78;;;4.53;100.00
29379;BME280;16362;47.202;15.258;2023-02-19T07:40:53;96228.16;;;4.64;100.00
29379;BME280;16362;47.202;15.258;2023-02-19T07:43:21;96234.00;;;4.68;100.00
29379;BME280;16362;47.202;15.258;2023-02-19T07:45:48;96250.97;;;4.65;100.00
29379;BME280;16362;47.202;15.258;2023-02-19T07:48:15;96240.00;;;4.70;100.00
29379;BME280;16362;47.202;15.258;2023-02-19T07:50:50;96230.66;;;4.76;100.00
29379;BME280;16362;47.202;15.258;2023-02-19T07:53:16;96227.59;;;4.70;100.00
29379;BME280;16362;47.202;15.258;2023-02-19T07:55:43;96223.56;;;4.76;100.00
29379;BME280;16362;47.202;15.258;2023-02-19T07:58:10;96226.19;;;4.76;100.00
29379;BME280;16362;47.202;15.258;2023-02-19T08:00:37;96221.91;;;4.75;100.00
29379;BME280;16362;47.202;15.258;2023-02-19T08:03:04;96224.94;;;4.80;100.00
29379;BME280;16362;47.202;15.258;2023-02-19T08:05:33;96217.56;;;4.94;100.00
29379;BME280;16362;47.202;15.258;2023-02-19T08:08:04;96217.56;;;5.03;100.00
29379;BME280;16362;47.202;15.258;2023-02-19T08:10:32;96223.22;;;5.38;100.00
29379;BME280;16362;47.202;15.258;2023-02-19T08:13:17;96220.84;;;5.35;100.00
29379;BME280;16362;47.202;15.258;2023-02-19T08:15:52;96222.25;;;5.39;100.00
29379;BME280;16362;47.202;15.258;2023-02-19T08:18:26;96214.03;;;5.32;100.00
29379;BME280;16362;47.202;15.258;2023-02-19T08:20:54;96218.88;;;5.47;100.00
29379;BME280;16362;47.202;15.258;2023-02-19T08:23:22;96222.66;;;5.44;100.00
29379;BME280;16362;47.202;15.258;2023-02-19T08:25:49;96222.50;;;5.46;100.00
29379;BME280;16362;47.202;15.258;2023-02-19T08:28:17;96205.53;;;5.76;100.00
29379;BME280;16362;47.202;15.258;2023-02-19T08:30:46;96208.78;;;5.70;100.00
29379;BME280;16362;47.202;15.258;2023-02-19T08:33:16;96213.84;;;5.53;100.00
29379;BME280;16362;47.202;15.258;2023-02-19T08:35:44;96214.22;;;5.59;100.00
29379;BME280;16362;47.202;15.258;2023-02-19T08:38:12;96207.38;;;5.66;100.00
29379;BME280;16362;47.202;15.258;2023-02-19T08:40:42;96225.22;;;5.64;100.00
29379;BME280;16362;47.202;15.258;2023-02-19T08:43:12;96214.94;;;5.61;100.00
29379;BME280;16362;47.202;15.258;2023-02-19T08:45:40;96213.38;;;5.68;100.00
29379;BME280;16362;47.202;15.258;2023-02-19T08:48:08;96208.38;;;5.93;100.00
29379;BME280;16362;47.202;15.258;2023-02-19T08:50:35;96212.25;;;6.08;100.00
29379;BME280;16362;47.202;15.258;2023-02-19T08:53:02;96209.69;;;6.16;100.00
29379;BME280;16362;47.202;15.258;2023-02-19T08:55:30;96207.75;;;6.36;100.00
29379;BME280;16362;47.202;15.258;2023-02-19T08:57:57;96197.16;;;6.90;100.00
29379;BME280;16362;47.202;15.258;2023-02-19T09:00:24;96205.13;;;7.35;97.00
29379;BME280;16362;47.202;15.258;2023-02-19T09:02:51;96202.06;;;7.82;93.09
29379;BME280;16362;47.202;15.258;2023-02-19T09:05:17;96197.97;;;7.96;90.05
29379;BME280;16362;47.202;15.258;2023-02-19T09:07:44;96189.25;;;8.20;90.38
29379;BME280;16362;47.202;15.258;2023-02-19T09:10:12;96200.25;;;8.34;87.45
29379;BME280;16362;47.202;15.258;2023-02-19T09:12:39;96190.78;;;8.31;87.63
29379;BME280;16362;47.202;15.258;2023-02-19T09:15:06;96187.97;;;8.33;87.36
29379;BME280;16362;47.202;15.258;2023-02-19T09:17:33;96191.41;;;8.25;87.20
29379;BME280;16362;47.202;15.258;2023-02-19T09:20:00;96196.88;;;8.15;88.77
29379;BME280;16362;47.202;15.258;2023-02-19T09:22:26;96192.44;;;8.32;86.57
29379;BME280;16362;47.202;15.258;2023-02-19T09:24:53;96181.75;;;8.16;86.92
29379;BME280;16362;47.202;15.258;2023-02-19T09:27:20;96170.28;;;8.15;89.71
29379;BME280;16362;47.202;15.258;2023-02-19T09:29:47;96183.41;;;8.17;88.27
29379;BME280;16362;47.202;15.258;2023-02-19T09:32:14;96192.41;;;8.24;88.10
29379;BME280;16362;47.202;15.258;2023-02-19T09:34:43;96188.97;;;8.40;90.83
29379;BME280;16362;47.202;15.258;2023-02-19T09:37:10;96170.69;;;8.37;89.80
29379;BME280;16362;47.202;15.258;2023-02-19T09:39:36;96167.09;;;8.79;86.04
29379;BME280;16362;47.202;15.258;2023-02-19T09:42:12;96165.47;;;8.95;85.62
29379;BME280;16362;47.202;15.258;2023-02-19T09:44:43;96173.75;;;8.91;84.96
29379;BME280;16362;47.202;15.258;2023-02-19T09:47:19;96150.75;;;9.40;79.54
29379;BME280;16362;47.202;15.258;2023-02-19T09:49:48;96163.88;;;9.50;78.68
29379;BME280;16362;47.202;15.258;2023-02-19T09:52:34;96166.53;;;9.58;77.04
29379;BME280;16362;47.202;15.258;2023-02-19T09:57:51;96165.06;;;9.39;79.11
29379;BME280;16362;47.202;15.258;2023-02-19T10:00:24;96149.47;;;9.75;77.70
29379;BME280;16362;47.202;15.258;2023-02-19T10:03:25;96151.56;;;9.97;77.93
29379;BME280;16362;47.202;15.258;2023-02-19T10:06:20;96143.28;;;10.23;75.79
29379;BME280;16362;47.202;15.258;2023-02-19T10:08:51;96146.09;;;10.21;72.93
29379;BME280;16362;47.202;15.258;2023-02-19T10:11:18;96142.44;;;10.22;74.49
29379;BME280;16362;47.202;15.258;2023-02-19T10:13:54;96159.41;;;10.29;76.05
29379;BME280;16362;47.202;15.258;2023-02-19T10:16:28;96165.03;;;10.43;76.32
29379;BME280;16362;47.202;15.258;2023-02-19T10:18:55;96132.09;;;11.35;68.33
29379;BME280;16362;47.202;15.258;2023-02-19T10:21:26;96155.91;;;11.07;67.69
29379;BME280;16362;47.202;15.258;2023-02-19T10:24:00;96129.38;;;11.20;68.56
29379;BME280;16362;47.202;15.258;2023-02-19T10:26:28;96146.97;;;11.68;70.71
29379;BME280;16362;47.202;15.258;2023-02-19T10:29:01;96118.34;;;12.13;67.65
29379;BME280;16362;47.202;15.258;2023-02-19T10:31:30;96134.66;;;12.55;65.19
29379;BME280;16362;47.202;15.258;2023-02-19T10:34:00;96127.34;;;13.13;62.20
29379;BME280;16362;47.202;15.258;2023-02-19T10:36:30;96120.94;;;13.64;54.06
29379;BME280;16362;47.202;15.258;2023-02-19T10:39:00;96117.00;;;14.02;51.10
29379;BME280;16362;47.202;15.258;2023-02-19T10:41:27;96123.75;;;14.33;50.86
29379;BME280;16362;47.202;15.258;2023-02-19T10:44:08;96120.25;;;14.46;49.76
29379;BME280;16362;47.202;15.258;2023-02-19T10:46:40;96116.84;;;14.65;46.85
29379;BME280;16362;47.202;15.258;2023-02-19T10:51:48;96106.91;;;14.66;47.37
29379;BME280;16362;47.202;15.258;2023-02-19T10:54:23;96125.44;;;14.61;45.04
29379;BME280;16362;47.202;15.258;2023-02-19T10:56:50;96126.88;;;14.57;46.37
29379;BME280;16362;47.202;15.258;2023-02-19T11:02:00;96127.06;;;14.42;46.40
29379;BME280;16362;47.202;15.258;2023-02-19T11:04:30;96139.66;;;14.35;46.15
29379;BME280;16362;47.202;15.258;2023-02-19T11:07:14;96124.34;;;14.35;45.88
29379;BME280;16362;47.202;15.258;2023-02-19T11:09:48;96135.94;;;14.49;47.92
29379;BME280;16362;47.202;15.258;2023-02-19T11:12:32;96113.91;;;14.60;44.09
29379;BME280;16362;47.202;15.258;2023-02-19T11:15:18;96119.34;;;14.87;44.96
29379;BME280;16362;47.202;15.258;2023-02-19T11:17:54;96121.72;;;14.55;44.75
29379;BME280;16362;47.202;15.258;2023-02-19T11:20:20;96122.75;;;14.54;43.75
29379;BME280;16362;47.202;15.258;2023-02-19T11:22:48;96128.34;;;14.59;45.00
29379;BME280;16362;47.202;15.258;2023-02-19T11:30:31;96131.53;;;14.90;45.12
29379;BME280;16362;47.202;15.258;2023-02-19T11:36:21;96111.09;;;15.15;42.28
29379;BME280;16362;47.202;15.258;2023-02-19T11:38:49;96099.91;;;14.98;42.88
29379;BME280;16362;47.202;15.258;2023-02-19T11:41:28;96105.50;;;14.90;41.32
29379;BME280;16362;47.202;15.258;2023-02-19T11:44:20;96107.16;;;14.85;41.36
29379;BME280;16362;47.202;15.258;2023-02-19T11:55:15;96095.16;;;14.87;42.18
29379;BME280;16362;47.202;15.258;2023-02-19T12:00:47;96103.81;;;14.69;41.59
29379;BME280;16362;47.202;15.258;2023-02-19T12:03:41;96118.47;;;14.67;41.21
29379;BME280;16362;47.202;15.258;2023-02-19T12:09:11;96112.81;;;14.41;41.35
29379;BME280;16362;47.202;15.258;2023-02-19T12:18:02;96110.66;;;14.10;38.62
29379;BME280;16362;47.202;15.258;2023-02-19T12:25:46;96136.09;;;13.44;41.61
29379;BME280;16362;47.202;15.258;2023-02-19T12:44:51;96146.94;;;13.36;46.83
29379;BME280;16362;47.202;15.258;2023-02-19T12:47:25;96150.75;;;13.26;47.33
29379;BME280;16362;47.202;15.258;2023-02-19T12:52:46;96155.50;;;13.03;49.10
29379;BME280;16362;47.202;15.258;2023-02-19T12:55:21;96149.66;;;12.92;48.24
29379;BME280;16362;47.202;15.258;2023-02-19T12:57:50;96161.59;;;12.90;50.12
29379;BME280;16362;47.202;15.258;2023-02-19T13:05:46;96173.69;;;12.86;49.99
29379;BME280;16362;47.202;15.258;2023-02-19T13:08:20;96156.41;;;12.88;50.03
29379;BME280;16362;47.202;15.258;2023-02-19T13:10:55;96150.81;;;12.83;51.21
29379;BME280;16362;47.202;15.258;2023-02-19T13:13:30;96160.63;;;12.76;50.20
29379;BME280;16362;47.202;15.258;2023-02-19T13:16:05;96184.47;;;12.71;51.22
29379;BME280;16362;47.202;15.258;2023-02-19T13:18:41;96175.81;;;12.54;52.45
29379;BME280;16362;47.202;15.258;2023-02-19T13:21:11;96175.13;;;12.45;53.40
29379;BME280;16362;47.202;15.258;2023-02-19T13:24:06;96176.06;;;12.37;52.75
29379;BME280;16362;47.202;15.258;2023-02-19T13:37:48;96218.88;;;11.92;56.72
29379;BME280;16362;47.202;15.258;2023-02-19T13:40:36;96216.91;;;11.86;56.67
29379;BME280;16362;47.202;15.258;2023-02-19T13:43:25;96209.84;;;11.78;57.09
29379;BME280;16362;47.202;15.258;2023-02-19T13:45:58;96221.88;;;11.74;57.28
29379;BME280;16362;47.202;15.258;2023-02-19T13:48:38;96235.19;;;11.68;57.90
29379;BME280;16362;47.202;15.258;2023-02-19T13:59:22;96270.75;;;11.68;58.68
29379;BME280;16362;47.202;15.258;2023-02-19T14:04:43;96255.22;;;11.25;59.63
29379;BME280;16362;47.202;15.258;2023-02-19T14:14:45;96269.47;;;10.94;59.51
29379;BME280;16362;47.202;15.258;2023-02-19T14:30:33;96294.38;;;10.55;62.08
29379;BME280;16362;47.202;15.258;2023-02-19T14:33:02;96295.88;;;10.50;62.08
29379;BME280;16362;47.202;15.258;2023-02-19T14:35:39;96287.75;;;10.43;63.73
29379;BME280;16362;47.202;15.258;2023-02-19T14:38:33;96301.97;;;10.35;62.99
29379;BME280;16362;47.202;15.258;2023-02-19T14:41:02;96293.25;;;10.33;62.74
29379;BME280;16362;47.202;15.258;2023-02-19T14:43:29;96301.44;;;10.32;62.14
29379;BME280;16362;47.202;15.258;2023-02-19T14:46:00;96311.78;;;10.35;62.74
29379;BME280;16362;47.202;15.258;2023-02-19T14:48:44;96314.44;;;10.26;62.96
29379;BME280;16362;47.202;15.258;2023-02-19T14:51:19;96333.13;;;10.26;62.19
29379;BME280;16362;47.202;15.258;2023-02-19T14:53:49;96333.28;;;10.25;61.57
29379;BME280;16362;47.202;15.258;2023-02-19T14:56:23;96332.13;;;10.27;62.06
29379;BME280;16362;47.202;15.258;2023-02-19T15:01:34;96351.47;;;10.21;61.96
29379;BME280;16362;47.202;15.258;2023-02-19T15:04:01;96335.59;;;10.28;60.28
29379;BME280;16362;47.202;15.258;2023-02-19T15:06:28;96339.59;;;10.32;61.30
29379;BME280;16362;47.202;15.258;2023-02-19T15:08:59;96352.97;;;10.24;61.10
29379;BME280;16362;47.202;15.258;2023-02-19T15:11:29;96344.50;;;10.12;61.60
29379;BME280;16362;47.202;15.258;2023-02-19T15:14:00;96351.97;;;10.17;60.11
29379;BME280;16362;47.202;15.258;2023-02-19T15:16:29;96353.81;;;10.16;59.75
29379;BME280;16362;47.202;15.258;2023-02-19T15:18:57;96347.63;;;10.16;59.74
29379;BME280;16362;47.202;15.258;2023-02-19T15:21:27;96352.66;;;10.10;63.32
29379;BME280;16362;47.202;15.258;2023-02-19T15:23:57;96353.19;;;9.98;61.57
29379;BME280;16362;47.202;15.258;2023-02-19T15:26:34;96360.84;;;9.92;63.05
29379;BME280;16362;47.202;15.258;2023-02-19T15:29:07;96365.50;;;9.82;61.96